sensor_id;sensor_type;location;lat;lon;timestamp;pressure;altitude;pressure_sealevel;temperature;humidity
34696;BME280;20918;51.138;17.370;2022-12-29T00:03:01;99918.41;;;5.69;73.26
34696;BME280;20918;51.138;17.370;2022-12-29T00:06:02;99904.78;;;5.69;73.27
34696;BME280;20918;51.138;17.370;2022-12-29T00:09:04;99906.30;;;5.72;73.20
34696;BME280;20918;51.138;17.370;2022-12-29T00:12:05;99904.34;;;5.74;73.25
34696;BME280;20918;51.138;17.370;2022-12-29T00:15:07;99892.20;;;5.77;73.06
34696;BME280;20918;51.138;17.370;2022-12-29T00:18:27;99891.80;;;5.81;73.04
34696;BME280;20918;51.138;17.370;2022-12-29T00:21:28;99899.62;;;5.87;72.85
34696;BME280;20918;51.138;17.370;2022-12-29T00:24:48;99886.37;;;5.93;72.54
34696;BME280;20918;51.138;17.370;2022-12-29T00:28:10;99892.86;;;5.94;72.48
34696;BME280;20918;51.138;17.370;2022-12-29T00:31:30;99899.11;;;6.07;72.19
34696;BME280;20918;51.138;17.370;2022-12-29T00:34:49;99885.86;;;6.13;72.05
34696;BME280;20918;51.138;17.370;2022-12-29T00:38:10;99888.41;;;6.18;72.00
34696;BME280;20918;51.138;17.370;2022-12-29T00:41:15;99880.73;;;6.25;71.86
34696;BME280;20918;51.138;17.370;2022-12-29T00:44:35;99879.98;;;6.28;71.85
34696;BME280;20918;51.138;17.370;2022-12-29T00:47:36;99875.38;;;6.31;71.43
34696;BME280;20918;51.138;17.370;2022-12-29T00:50:37;99874.26;;;6.33;71.48
34696;BME280;20918;51.138;17.370;2022-12-29T00:53:38;99866.35;;;6.33;71.29
34696;BME280;20918;51.138;17.370;2022-12-29T00:56:40;99863.72;;;6.33;71.40
34696;BME280;20918;51.138;17.370;2022-12-29T00:59:42;99852.02;;;6.32;70.84
34696;BME280;20918;51.138;17.370;2022-12-29T01:02:43;99855.98;;;6.32;71.30
34696;BME280;20918;51.138;17.370;2022-12-29T01:05:44;99853.84;;;6.31;71.20
34696;BME280;20918;51.138;17.370;2022-12-29T01:08:47;99847.70;;;6.31;71.13
34696;BME280;20918;51.138;17.370;2022-12-29T01:11:50;99847.05;;;6.28;71.15
34696;BME280;20918;51.138;17.370;2022-12-29T01:14:51;99852.45;;;6.27;71.05
34696;BME280;20918;51.138;17.370;2022-12-29T01:17:54;99845.33;;;6.23;71.17
34696;BME280;20918;51.138;17.370;2022-12-29T01:21:00;99841.05;;;6.22;70.88
34696;BME280;20918;51.138;17.370;2022-12-29T01:24:02;99833.08;;;6.18;70.72
34696;BME280;20918;51.138;17.370;2022-12-29T01:27:04;99841.60;;;6.16;71.00
34696;BME280;20918;51.138;17.370;2022-12-29T01:30:06;99839.46;;;6.16;70.50
34696;BME280;20918;51.138;17.370;2022-12-29T01:33:08;99842.30;;;6.18;70.33
34696;BME280;20918;51.138;17.370;2022-12-29T01:36:12;99837.36;;;6.19;70.60
34696;BME280;20918;51.138;17.370;2022-12-29T01:39:14;99830.60;;;6.17;70.75
34696;BME280;20918;51.138;17.370;2022-12-29T01:42:18;99832.05;;;6.15;70.62
34696;BME280;20918;51.138;17.370;2022-12-29T01:45:20;99826.65;;;6.17;70.67
34696;BME280;20918;51.138;17.370;2022-12-29T01:48:22;99830.41;;;6.14;70.61
34696;BME280;20918;51.138;17.370;2022-12-29T01:51:24;99825.76;;;6.12;70.64
34696;BME280;20918;51.138;17.370;2022-12-29T01:54:32;99825.43;;;6.11;70.80
34696;BME280;20918;51.138;17.370;2022-12-29T01:57:38;99814.20;;;6.09;70.95
34696;BME280;20918;51.138;17.370;2022-12-29T02:00:42;99816.47;;;6.08;70.82
34696;BME280;20918;51.138;17.370;2022-12-29T02:03:43;99810.05;;;6.06;70.44
34696;BME280;20918;51.138;17.370;2022-12-29T02:07:02;99815.94;;;6.04;70.83
34696;BME280;20918;51.138;17.370;2022-12-29T02:10:05;99800.76;;;6.02;70.97
34696;BME280;20918;51.138;17.370;2022-12-29T02:13:07;99801.34;;;5.96;70.88
34696;BME280;20918;51.138;17.370;2022-12-29T02:30:43;99779.05;;;5.57;71.37
34696;BME280;20918;51.138;17.370;2022-12-29T02:34:01;99791.14;;;5.50;71.48
34696;BME280;20918;51.138;17.370;2022-12-29T02:37:06;99779.51;;;5.43;71.40
34696;BME280;20918;51.138;17.370;2022-12-29T02:47:36;99778.15;;;5.29;71.63
34696;BME280;20918;51.138;17.370;2022-12-29T02:51:03;99770.54;;;5.26;71.72
34696;BME280;20918;51.138;17.370;2022-12-29T02:54:07;99777.77;;;5.24;71.84
34696;BME280;20918;51.138;17.370;2022-12-29T02:57:30;99778.88;;;5.22;71.85
34696;BME280;20918;51.138;17.370;2022-12-29T03:00:36;99773.73;;;5.20;71.91
34696;BME280;20918;51.138;17.370;2022-12-29T03:13:47;99763.86;;;5.08;72.19
34696;BME280;20918;51.138;17.370;2022-12-29T03:20:57;99757.70;;;5.04;72.35
34696;BME280;20918;51.138;17.370;2022-12-29T03:23:59;99752.31;;;5.05;72.35
34696;BME280;20918;51.138;17.370;2022-12-29T03:27:03;99754.81;;;5.07;72.44
34696;BME280;20918;51.138;17.370;2022-12-29T03:30:09;99752.52;;;5.08;72.40
34696;BME280;20918;51.138;17.370;2022-12-29T03:33:14;99744.34;;;5.11;72.34
34696;BME280;20918;51.138;17.370;2022-12-29T03:36:33;99742.69;;;5.10;72.50
34696;BME280;20918;51.138;17.370;2022-12-29T03:39:36;99739.08;;;5.11;72.41
34696;BME280;20918;51.138;17.370;2022-12-29T03:42:39;99734.64;;;5.11;72.47
34696;BME280;20918;51.138;17.370;2022-12-29T03:45:42;99733.00;;;5.10;72.45
34696;BME280;20918;51.138;17.370;2022-12-29T03:48:44;99736.78;;;5.12;72.40
34696;BME280;20918;51.138;17.370;2022-12-29T03:51:45;99739.78;;;5.13;72.48
34696;BME280;20918;51.138;17.370;2022-12-29T03:54:47;99742.62;;;5.15;72.46
34696;BME280;20918;51.138;17.370;2022-12-29T03:57:48;99739.83;;;5.17;72.32
34696;BME280;20918;51.138;17.370;2022-12-29T04:00:51;99743.00;;;5.21;72.42
34696;BME280;20918;51.138;17.370;2022-12-29T04:03:52;99731.86;;;5.23;72.38
34696;BME280;20918;51.138;17.370;2022-12-29T04:06:54;99734.00;;;5.23;72.48
34696;BME280;20918;51.138;17.370;2022-12-29T04:09:55;99733.38;;;5.25;72.50
34696;BME280;20918;51.138;17.370;2022-12-29T04:12:58;99729.64;;;5.28;72.50
34696;BME280;20918;51.138;17.370;2022-12-29T04:16:00;99722.91;;;5.29;72.39
34696;BME280;20918;51.138;17.370;2022-12-29T04:19:02;99716.40;;;5.33;71.81
34696;BME280;20918;51.138;17.370;2022-12-29T04:22:03;99713.35;;;5.38;71.78
34696;BME280;20918;51.138;17.370;2022-12-29T04:25:07;99719.84;;;5.44;72.04
34696;BME280;20918;51.138;17.370;2022-12-29T04:28:08;99708.05;;;5.48;71.67
34696;BME280;20918;51.138;17.370;2022-12-29T04:31:20;99709.77;;;5.53;71.62
34696;BME280;20918;51.138;17.370;2022-12-29T04:34:23;99716.67;;;5.54;71.28
34696;BME280;20918;51.138;17.370;2022-12-29T04:37:24;99717.70;;;5.57;71.31
34696;BME280;20918;51.138;17.370;2022-12-29T04:40:26;99718.39;;;5.59;71.35
34696;BME280;20918;51.138;17.370;2022-12-29T04:43:28;99704.31;;;5.64;70.82
34696;BME280;20918;51.138;17.370;2022-12-29T04:46:34;99701.23;;;5.69;69.48
34696;BME280;20918;51.138;17.370;2022-12-29T04:49:36;99701.00;;;5.76;70.43
34696;BME280;20918;51.138;17.370;2022-12-29T04:52:39;99701.53;;;5.79;70.06
34696;BME280;20918;51.138;17.370;2022-12-29T04:55:43;99706.37;;;5.84;69.87
34696;BME280;20918;51.138;17.370;2022-12-29T04:58:44;99701.50;;;5.89;69.59
34696;BME280;20918;51.138;17.370;2022-12-29T05:01:45;99700.70;;;5.93;69.07
34696;BME280;20918;51.138;17.370;2022-12-29T05:04:46;99696.66;;;5.94;68.61
34696;BME280;20918;51.138;17.370;2022-12-29T05:07:49;99698.08;;;5.93;69.03
34696;BME280;20918;51.138;17.370;2022-12-29T05:10:51;99698.08;;;5.93;69.04
34696;BME280;20918;51.138;17.370;2022-12-29T05:13:52;99694.13;;;5.93;69.02
34696;BME280;20918;51.138;17.370;2022-12-29T05:16:53;99694.48;;;5.94;68.79
34696;BME280;20918;51.138;17.370;2022-12-29T05:19:54;99691.03;;;5.93;68.49
34696;BME280;20918;51.138;17.370;2022-12-29T05:22:56;99686.95;;;5.95;68.69
34696;BME280;20918;51.138;17.370;2022-12-29T05:25:58;99681.32;;;5.94;68.25
34696;BME280;20918;51.138;17.370;2022-12-29T05:29:03;99671.64;;;5.94;68.65
34696;BME280;20918;51.138;17.370;2022-12-29T05:32:04;99666.37;;;5.94;68.23
34696;BME280;20918;51.138;17.370;2022-12-29T05:35:07;99664.20;;;5.94;68.19
34696;BME280;20918;51.138;17.370;2022-12-29T05:38:09;99665.87;;;5.95;68.27
34696;BME280;20918;51.138;17.370;2022-12-29T05:41:10;99652.35;;;5.94;68.13
34696;BME280;20918;51.138;17.370;2022-12-29T05:44:14;99664.56;;;5.95;68.30
34696;BME280;20918;51.138;17.370;2022-12-29T05:47:19;99653.04;;;5.96;68.22
34696;BME280;20918;51.138;17.370;2022-12-29T05:50:22;99650.41;;;5.96;68.02
34696;BME280;20918;51.138;17.370;2022-12-29T05:53:42;99643.83;;;5.96;67.49
34696;BME280;20918;51.138;17.370;2022-12-29T05:56:44;99643.00;;;5.95;67.50
34696;BME280;20918;51.138;17.370;2022-12-29T05:59:45;99646.62;;;5.94;67.87
34696;BME280;20918;51.138;17.370;2022-12-29T06:02:46;99645.54;;;5.91;67.58
34696;BME280;20918;51.138;17.370;2022-12-29T06:05:49;99649.16;;;5.90;67.70
34696;BME280;20918;51.138;17.370;2022-12-29T06:08:50;99654.23;;;5.88;67.90
34696;BME280;20918;51.138;17.370;2022-12-29T06:11:52;99660.48;;;5.87;67.43
34696;BME280;20918;51.138;17.370;2022-12-29T06:14:54;99655.55;;;5.88;67.54
34696;BME280;20918;51.138;17.370;2022-12-29T06:17:56;99657.89;;;5.91;67.44
34696;BME280;20918;51.138;17.370;2022-12-29T06:21:01;99650.81;;;5.91;67.61
34696;BME280;20918;51.138;17.370;2022-12-29T06:24:04;99648.77;;;5.95;67.17
34696;BME280;20918;51.138;17.370;2022-12-29T06:27:08;99651.09;;;5.98;67.23
34696;BME280;20918;51.138;17.370;2022-12-29T06:30:10;99654.75;;;6.01;67.28
34696;BME280;20918;51.138;17.370;2022-12-29T06:33:14;99653.76;;;6.02;67.25
34696;BME280;20918;51.138;17.370;2022-12-29T06:36:16;99663.34;;;6.03;66.69
34696;BME280;20918;51.138;17.370;2022-12-29T06:39:18;99659.72;;;6.04;67.31
34696;BME280;20918;51.138;17.370;2022-12-29T06:42:21;99656.09;;;6.05;67.16
34696;BME280;20918;51.138;17.370;2022-12-29T06:45:24;99649.51;;;6.05;67.32
34696;BME280;20918;51.138;17.370;2022-12-29T06:48:25;99634.56;;;6.05;66.91
34696;BME280;20918;51.138;17.370;2022-12-29T06:51:26;99634.39;;;6.07;66.61
34696;BME280;20918;51.138;17.370;2022-12-29T06:54:27;99651.84;;;6.08;66.67
34696;BME280;20918;51.138;17.370;2022-12-29T06:57:28;99654.34;;;6.10;66.86
34696;BME280;20918;51.138;17.370;2022-12-29T07:00:29;99665.07;;;6.12;66.91
34696;BME280;20918;51.138;17.370;2022-12-29T07:03:30;99671.03;;;6.14;66.61
34696;BME280;20918;51.138;17.370;2022-12-29T07:06:32;99662.33;;;6.18;66.40
34696;BME280;20918;51.138;17.370;2022-12-29T07:09:32;99666.97;;;6.20;66.65
34696;BME280;20918;51.138;17.370;2022-12-29T07:12:34;99669.80;;;6.22;66.52
34696;BME280;20918;51.138;17.370;2022-12-29T07:15:36;99662.05;;;6.25;66.36
34696;BME280;20918;51.138;17.370;2022-12-29T07:18:38;99665.73;;;6.28;66.52
34696;BME280;20918;51.138;17.370;2022-12-29T07:21:39;99661.80;;;6.32;65.99
34696;BME280;20918;51.138;17.370;2022-12-29T07:24:40;99669.08;;;6.34;66.22
34696;BME280;20918;51.138;17.370;2022-12-29T07:27:43;99668.28;;;6.38;66.16
34696;BME280;20918;51.138;17.370;2022-12-29T07:30:45;99668.47;;;6.40;65.80
34696;BME280;20918;51.138;17.370;2022-12-29T07:33:47;99672.94;;;6.44;65.74
34696;BME280;20918;51.138;17.370;2022-12-29T07:36:48;99668.55;;;6.48;65.68
34696;BME280;20918;51.138;17.370;2022-12-29T07:39:49;99666.43;;;6.52;65.16
34696;BME280;20918;51.138;17.370;2022-12-29T07:42:50;99663.16;;;6.54;65.66
34696;BME280;20918;51.138;17.370;2022-12-29T07:45:54;99667.44;;;6.55;65.58
34696;BME280;20918;51.138;17.370;2022-12-29T07:48:57;99669.45;;;6.57;65.39
34696;BME280;20918;51.138;17.370;2022-12-29T07:51:58;99671.28;;;6.61;65.46
34696;BME280;20918;51.138;17.370;2022-12-29T07:54:59;99669.33;;;6.63;65.45
34696;BME280;20918;51.138;17.370;2022-12-29T07:58:01;99668.69;;;6.65;65.56
34696;BME280;20918;51.138;17.370;2022-12-29T08:01:02;99660.97;;;6.67;65.41
34696;BME280;20918;51.138;17.370;2022-12-29T08:04:04;99666.76;;;6.71;65.07
34696;BME280;20918;51.138;17.370;2022-12-29T08:07:06;99661.67;;;6.73;65.32
34696;BME280;20918;51.138;17.370;2022-12-29T08:10:07;99663.01;;;6.78;65.10
34696;BME280;20918;51.138;17.370;2022-12-29T08:13:09;99661.73;;;6.82;64.88
34696;BME280;20918;51.138;17.370;2022-12-29T08:16:10;99666.53;;;6.86;64.91
34696;BME280;20918;51.138;17.370;2022-12-29T08:19:12;99666.72;;;6.89;65.05
34696;BME280;20918;51.138;17.370;2022-12-29T08:22:14;99667.09;;;6.94;64.82
34696;BME280;20918;51.138;17.370;2022-12-29T08:25:15;99674.19;;;6.98;64.90
34696;BME280;20918;51.138;17.370;2022-12-29T08:28:16;99666.65;;;7.03;64.93
34696;BME280;20918;51.138;17.370;2022-12-29T08:31:18;99660.92;;;7.07;64.57
34696;BME280;20918;51.138;17.370;2022-12-29T08:34:19;99670.03;;;7.17;64.69
34696;BME280;20918;51.138;17.370;2022-12-29T08:37:20;99669.08;;;7.22;64.11
34696;BME280;20918;51.138;17.370;2022-12-29T08:40:24;99676.38;;;7.28;64.76
34696;BME280;20918;51.138;17.370;2022-12-29T08:43:26;99670.96;;;7.34;64.47
34696;BME280;20918;51.138;17.370;2022-12-29T08:46:28;99677.42;;;7.39;63.97
34696;BME280;20918;51.138;17.370;2022-12-29T08:49:29;99671.86;;;7.47;64.05
34696;BME280;20918;51.138;17.370;2022-12-29T08:52:31;99669.73;;;7.54;63.75
34696;BME280;20918;51.138;17.370;2022-12-29T08:55:32;99666.66;;;7.63;63.30
34696;BME280;20918;51.138;17.370;2022-12-29T08:58:33;99664.52;;;7.71;62.99
34696;BME280;20918;51.138;17.370;2022-12-29T09:01:35;99664.23;;;7.78;62.89
34696;BME280;20918;51.138;17.370;2022-12-29T09:04:38;99652.70;;;7.83;62.67
34696;BME280;20918;51.138;17.370;2022-12-29T09:07:40;99652.41;;;7.94;62.80
34696;BME280;20918;51.138;17.370;2022-12-29T09:10:41;99660.50;;;8.05;62.47
34696;BME280;20918;51.138;17.370;2022-12-29T09:13:42;99663.99;;;8.09;61.98
34696;BME280;20918;51.138;17.370;2022-12-29T09:16:43;99658.70;;;8.14;61.44
34696;BME280;20918;51.138;17.370;2022-12-29T09:20:04;99661.37;;;8.18;61.76
34696;BME280;20918;51.138;17.370;2022-12-29T09:23:06;99670.12;;;8.18;61.86
34696;BME280;20918;51.138;17.370;2022-12-29T09:26:07;99660.22;;;8.20;61.44
34696;BME280;20918;51.138;17.370;2022-12-29T09:29:08;99664.69;;;8.20;61.83
34696;BME280;20918;51.138;17.370;2022-12-29T09:32:10;99663.04;;;8.23;61.30
34696;BME280;20918;51.138;17.370;2022-12-29T09:35:11;99656.42;;;8.27;61.42
34696;BME280;20918;51.138;17.370;2022-12-29T09:38:13;99659.55;;;8.30;61.44
34696;BME280;20918;51.138;17.370;2022-12-29T09:41:29;99653.80;;;8.31;61.23
34696;BME280;20918;51.138;17.370;2022-12-29T09:47:54;99652.80;;;8.32;61.61
34696;BME280;20918;51.138;17.370;2022-12-29T09:50:59;99668.01;;;8.34;61.74
34696;BME280;20918;51.138;17.370;2022-12-29T10:04:06;99656.17;;;8.50;61.64
34696;BME280;20918;51.138;17.370;2022-12-29T10:07:33;99660.44;;;8.56;61.58
34696;BME280;20918;51.138;17.370;2022-12-29T10:10:42;99646.23;;;8.61;61.27
34696;BME280;20918;51.138;17.370;2022-12-29T10:14:05;99643.44;;;8.70;61.72
34696;BME280;20918;51.138;17.370;2022-12-29T10:20:53;99634.98;;;8.87;61.31
34696;BME280;20918;51.138;17.370;2022-12-29T10:23:59;99624.72;;;8.96;61.50
34696;BME280;20918;51.138;17.370;2022-12-29T10:27:01;99588.36;;;8.82;60.96
34696;BME280;20918;51.138;17.370;2022-12-29T10:30:05;99606.69;;;8.96;61.17
34696;BME280;20918;51.138;17.370;2022-12-29T10:33:10;99624.67;;;9.09;60.55
34696;BME280;20918;51.138;17.370;2022-12-29T10:36:18;99624.67;;;9.09;60.55
34696;BME280;20918;51.138;17.370;2022-12-29T10:39:30;99608.00;;;9.04;61.08
34696;BME280;20918;51.138;17.370;2022-12-29T10:42:37;99608.00;;;9.04;61.08
34696;BME280;20918;51.138;17.370;2022-12-29T10:45:44;99609.63;;;9.13;60.94
34696;BME280;20918;51.138;17.370;2022-12-29T10:48:45;99631.23;;;9.33;60.63
34696;BME280;20918;51.138;17.370;2022-12-29T10:51:48;99626.07;;;9.40;60.49
34696;BME280;20918;51.138;17.370;2022-12-29T10:55:00;99618.95;;;9.45;60.44
34696;BME280;20918;51.138;17.370;2022-12-29T10:58:06;99615.11;;;9.51;60.62
34696;BME280;20918;51.138;17.370;2022-12-29T11:01:09;99618.23;;;9.59;60.57
34696;BME280;20918;51.138;17.370;2022-12-29T11:07:40;99614.84;;;9.73;60.53
34696;BME280;20918;51.138;17.370;2022-12-29T11:10:43;99618.12;;;9.79;60.30
34696;BME280;20918;51.138;17.370;2022-12-29T11:13:50;99617.10;;;9.84;60.34
34696;BME280;20918;51.138;17.370;2022-12-29T11:17:03;99611.14;;;9.86;59.84
34696;BME280;20918;51.138;17.370;2022-12-29T11:26:38;99608.44;;;9.95;59.54
34696;BME280;20918;51.138;17.370;2022-12-29T11:29:42;99596.16;;;9.98;59.03
34696;BME280;20918;51.138;17.370;2022-12-29T11:32:50;99587.55;;;10.00;58.96
34696;BME280;20918;51.138;17.370;2022-12-29T11:35:58;99592.49;;;10.03;59.16
34696;BME280;20918;51.138;17.370;2022-12-29T11:39:04;99593.61;;;10.08;59.23
34696;BME280;20918;51.138;17.370;2022-12-29T11:42:10;99593.06;;;10.13;58.85
34696;BME280;20918;51.138;17.370;2022-12-29T11:45:22;99585.27;;;10.16;58.95
34696;BME280;20918;51.138;17.370;2022-12-29T11:48:31;99572.00;;;10.16;57.63
34696;BME280;20918;51.138;17.370;2022-12-29T11:54:46;99586.02;;;10.05;58.54
34696;BME280;20918;51.138;17.370;2022-12-29T11:57:48;99580.58;;;9.99;58.47
34696;BME280;20918;51.138;17.370;2022-12-29T12:00:51;99584.25;;;9.94;58.61
34696;BME280;20918;51.138;17.370;2022-12-29T12:07:14;99583.82;;;9.86;59.01
34696;BME280;20918;51.138;17.370;2022-12-29T12:10:21;99586.67;;;9.80;58.98
34696;BME280;20918;51.138;17.370;2022-12-29T12:13:41;99577.59;;;9.75;59.20
34696;BME280;20918;51.138;17.370;2022-12-29T12:17:11;99571.48;;;9.74;59.30
34696;BME280;20918;51.138;17.370;2022-12-29T12:27:20;99571.02;;;9.62;59.85
34696;BME280;20918;51.138;17.370;2022-12-29T12:30:29;99570.39;;;9.60;60.04
34696;BME280;20918;51.138;17.370;2022-12-29T12:33:44;99573.39;;;9.57;60.17
34696;BME280;20918;51.138;17.370;2022-12-29T12:44:18;99566.18;;;9.39;60.85
34696;BME280;20918;51.138;17.370;2022-12-29T12:58:09;99568.09;;;9.14;61.59
34696;BME280;20918;51.138;17.370;2022-12-29T13:01:54;99536.09;;;8.88;61.91
34696;BME280;20918;51.138;17.370;2022-12-29T13:08:41;99571.61;;;8.98;62.40
34696;BME280;20918;51.138;17.370;2022-12-29T13:25:59;99552.97;;;8.83;62.81
34696;BME280;20918;51.138;17.370;2022-12-29T13:36:49;99574.91;;;9.00;62.80
34696;BME280;20918;51.138;17.370;2022-12-29T13:39:52;99583.36;;;9.00;62.62
34696;BME280;20918;51.138;17.370;2022-12-29T13:42:59;99576.77;;;8.95;62.71
34696;BME280;20918;51.138;17.370;2022-12-29T13:46:11;99576.77;;;8.95;62.71
34696;BME280;20918;51.138;17.370;2022-12-29T13:49:27;99582.37;;;8.96;62.70
34696;BME280;20918;51.138;17.370;2022-12-29T14:06:30;99593.26;;;9.06;62.49
34696;BME280;20918;51.138;17.370;2022-12-29T14:09:42;99609.46;;;9.11;62.59
34696;BME280;20918;51.138;17.370;2022-12-29T14:12:49;99601.84;;;9.12;62.15
34696;BME280;20918;51.138;17.370;2022-12-29T14:15:55;99608.30;;;9.09;62.38
34696;BME280;20918;51.138;17.370;2022-12-29T14:19:14;99591.63;;;8.92;62.13
34696;BME280;20918;51.138;17.370;2022-12-29T14:29:56;99609.83;;;8.91;62.21
34696;BME280;20918;51.138;17.370;2022-12-29T14:33:15;99588.05;;;8.73;61.95
34696;BME280;20918;51.138;17.370;2022-12-29T14:36:26;99620.43;;;8.83;62.03
34696;BME280;20918;51.138;17.370;2022-12-29T14:39:42;99610.69;;;8.80;62.34
34696;BME280;20918;51.138;17.370;2022-12-29T14:42:46;99604.91;;;8.76;62.18
34696;BME280;20918;51.138;17.370;2022-12-29T14:45:58;99604.23;;;8.70;62.30
34696;BME280;20918;51.138;17.370;2022-12-29T14:48:58;99604.23;;;8.70;62.30
34696;BME280;20918;51.138;17.370;2022-12-29T14:52:13;99602.77;;;8.67;62.43
34696;BME280;20918;51.138;17.370;2022-12-29T14:59:02;99598.97;;;8.58;62.57
34696;BME280;20918;51.138;17.370;2022-12-29T15:02:13;99609.88;;;8.55;62.48
34696;BME280;20918;51.138;17.370;2022-12-29T15:05:43;99620.28;;;8.52;62.66
34696;BME280;20918;51.138;17.370;2022-12-29T15:15:27;99621.44;;;8.41;62.62
34696;BME280;20918;51.138;17.370;2022-12-29T15:18:32;99615.96;;;8.35;62.40
34696;BME280;20918;51.138;17.370;2022-12-29T15:21:35;99621.58;;;8.31;62.57
34696;BME280;20918;51.138;17.370;2022-12-29T15:24:41;99619.75;;;8.24;62.62
34696;BME280;20918;51.138;17.370;2022-12-29T15:27:49;99622.40;;;8.20;62.55
34696;BME280;20918;51.138;17.370;2022-12-29T15:30:57;99628.16;;;8.15;62.62
34696;BME280;20918;51.138;17.370;2022-12-29T15:34:12;99612.78;;;8.11;62.57
34696;BME280;20918;51.138;17.370;2022-12-29T15:37:25;99626.17;;;8.09;62.62
34696;BME280;20918;51.138;17.370;2022-12-29T15:40:32;99626.67;;;8.08;62.80
34696;BME280;20918;51.138;17.370;2022-12-29T15:44:31;99622.19;;;8.05;62.86
34696;BME280;20918;51.138;17.370;2022-12-29T15:47:19;99624.52;;;8.00;62.86
34696;BME280;20918;51.138;17.370;2022-12-29T15:50:31;99629.80;;;8.00;62.96
34696;BME280;20918;51.138;17.370;2022-12-29T15:53:34;99629.10;;;7.94;62.93
34696;BME280;20918;51.138;17.370;2022-12-29T15:56:35;99635.70;;;7.90;63.01
34696;BME280;20918;51.138;17.370;2022-12-29T15:59:45;99636.85;;;7.87;63.10
34696;BME280;20918;51.138;17.370;2022-12-29T16:02:44;99629.25;;;7.84;63.19
34696;BME280;20918;51.138;17.370;2022-12-29T16:06:07;99622.66;;;7.80;63.34
34696;BME280;20918;51.138;17.370;2022-12-29T16:09:03;99628.91;;;7.75;63.35
34696;BME280;20918;51.138;17.370;2022-12-29T16:12:07;99628.73;;;7.72;63.51
34696;BME280;20918;51.138;17.370;2022-12-29T16:15:17;99626.06;;;7.68;63.46
34696;BME280;20918;51.138;17.370;2022-12-29T16:18:25;99629.38;;;7.66;63.68
34696;BME280;20918;51.138;17.370;2022-12-29T16:21:34;99632.98;;;7.61;63.58
34696;BME280;20918;51.138;17.370;2022-12-29T16:24:38;99611.68;;;7.58;63.66
34696;BME280;20918;51.138;17.370;2022-12-29T16:27:42;99622.24;;;7.58;63.67
34696;BME280;20918;51.138;17.370;2022-12-29T16:30:44;99628.52;;;7.57;63.70
34696;BME280;20918;51.138;17.370;2022-12-29T16:33:54;99626.52;;;7.55;63.50
34696;BME280;20918;51.138;17.370;2022-12-29T16:37:01;99629.98;;;7.56;63.70
34696;BME280;20918;51.138;17.370;2022-12-29T16:43:33;99622.88;;;7.52;63.68
34696;BME280;20918;51.138;17.370;2022-12-29T16:50:18;99639.69;;;7.51;63.80
34696;BME280;20918;51.138;17.370;2022-12-29T16:53:39;99634.41;;;7.51;63.79
34696;BME280;20918;51.138;17.370;2022-12-29T16:56:43;99633.59;;;7.51;63.78
34696;BME280;20918;51.138;17.370;2022-12-29T16:59:46;99630.95;;;7.51;63.84
34696;BME280;20918;51.138;17.370;2022-12-29T17:02:49;99634.41;;;7.51;63.88
34696;BME280;20918;51.138;17.370;2022-12-29T17:05:52;99632.45;;;7.53;63.83
34696;BME280;20918;51.138;17.370;2022-12-29T17:08:54;99642.02;;;7.54;63.80
34696;BME280;20918;51.138;17.370;2022-12-29T17:11:58;99643.33;;;7.54;63.79
34696;BME280;20918;51.138;17.370;2022-12-29T17:15:05;99644.19;;;7.55;63.94
34696;BME280;20918;51.138;17.370;2022-12-29T17:18:13;99651.42;;;7.53;64.02
34696;BME280;20918;51.138;17.370;2022-12-29T17:21:15;99649.92;;;7.50;63.96
34696;BME280;20918;51.138;17.370;2022-12-29T17:24:18;99656.84;;;7.51;64.04
34696;BME280;20918;51.138;17.370;2022-12-29T17:27:23;99653.56;;;7.53;64.08
34696;BME280;20918;51.138;17.370;2022-12-29T17:30:28;99647.97;;;7.52;64.16
34696;BME280;20918;51.138;17.370;2022-12-29T17:33:36;99652.25;;;7.53;64.24
34696;BME280;20918;51.138;17.370;2022-12-29T17:36:38;99656.39;;;7.52;64.24
34696;BME280;20918;51.138;17.370;2022-12-29T17:39:41;99655.21;;;7.54;64.35
34696;BME280;20918;51.138;17.370;2022-12-29T17:42:50;99657.39;;;7.59;64.30
34696;BME280;20918;51.138;17.370;2022-12-29T17:45:53;99656.57;;;7.62;64.32
34696;BME280;20918;51.138;17.370;2022-12-29T17:48:56;99658.59;;;7.69;64.29
34696;BME280;20918;51.138;17.370;2022-12-29T17:51:57;99653.31;;;7.77;64.19
34696;BME280;20918;51.138;17.370;2022-12-29T17:54:59;99662.92;;;7.82;64.20
34696;BME280;20918;51.138;17.370;2022-12-29T17:58:00;99651.03;;;7.82;64.10
34696;BME280;20918;51.138;17.370;2022-12-29T18:01:03;99652.03;;;7.85;63.92
34696;BME280;20918;51.138;17.370;2022-12-29T18:04:06;99661.62;;;7.86;63.97
34696;BME280;20918;51.138;17.370;2022-12-29T18:07:10;99652.70;;;7.83;63.87
34696;BME280;20918;51.138;17.370;2022-12-29T18:10:12;99653.03;;;7.84;63.83
34696;BME280;20918;51.138;17.370;2022-12-29T18:16:25;99666.70;;;7.79;63.96
34696;BME280;20918;51.138;17.370;2022-12-29T18:19:27;99666.70;;;7.75;63.97
34696;BME280;20918;51.138;17.370;2022-12-29T18:22:28;99662.38;;;7.70;63.93
34696;BME280;20918;51.138;17.370;2022-12-29T18:28:42;99664.70;;;7.69;64.09
34696;BME280;20918;51.138;17.370;2022-12-29T18:31:44;99664.20;;;7.70;63.94
34696;BME280;20918;51.138;17.370;2022-12-29T18:34:46;99660.56;;;7.71;64.11
34696;BME280;20918;51.138;17.370;2022-12-29T18:37:48;99665.20;;;7.73;63.99
34696;BME280;20918;51.138;17.370;2022-12-29T18:40:50;99664.56;;;7.75;63.97
34696;BME280;20918;51.138;17.370;2022-12-29T18:43:54;99668.16;;;7.74;63.90
34696;BME280;20918;51.138;17.370;2022-12-29T18:46:56;99668.52;;;7.75;63.87
34696;BME280;20918;51.138;17.370;2022-12-29T18:49:57;99666.37;;;7.74;63.82
34696;BME280;20918;51.138;17.370;2022-12-29T18:52:58;99666.20;;;7.72;64.03
34696;BME280;20918;51.138;17.370;2022-12-29T18:56:00;99670.63;;;7.67;64.11
34696;BME280;20918;51.138;17.370;2022-12-29T18:59:01;99673.91;;;7.65;64.15
34696;BME280;20918;51.138;17.370;2022-12-29T19:02:03;99672.41;;;7.62;64.15
34696;BME280;20918;51.138;17.370;2022-12-29T19:05:16;99664.48;;;7.62;64.14
34696;BME280;20918;51.138;17.370;2022-12-29T19:08:17;99671.77;;;7.60;64.30